createdAt,value
2023-03-22T00:00:29.268Z,92.02
2023-03-22T00:03:31.889Z,92.29
2023-03-22T00:06:34.444Z,93.91
2023-03-22T00:09:36.918Z,93.04
2023-03-22T00:12:39.356Z,94.03
2023-03-22T00:15:44.911Z,94.99
2023-03-22T00:18:47.513Z,95.74
2023-03-22T00:21:51.552Z,95.35
2023-03-22T00:24:54.092Z,95.29
2023-03-22T00:27:56.650Z,95.21
2023-03-22T00:31:01.562Z,95.79
2023-03-22T00:34:04.190Z,93.85
2023-03-22T00:37:08.202Z,94.03
2023-03-22T00:40:15.105Z,95.43
2023-03-22T00:43:18.321Z,95.98
2023-03-22T00:46:21.723Z,95.17
2023-03-22T00:49:25.639Z,96.95
2023-03-22T00:52:31.585Z,96.92
2023-03-22T00:55:34.912Z,95.92
2023-03-22T00:58:38.168Z,95.61
2023-03-22T01:01:41.020Z,94.13
2023-03-22T01:04:46.424Z,97.72
2023-03-22T01:07:55.128Z,94.49
2023-03-22T01:10:57.632Z,93.10
2023-03-22T01:14:00.173Z,93.58
2023-03-22T01:17:02.818Z,93.91
2023-03-22T01:20:06.917Z,94.41
2023-03-22T01:23:09.487Z,94.00
2023-03-22T01:26:11.981Z,94.51
2023-03-22T01:29:16.860Z,94.94
2023-03-22T01:32:19.372Z,94.13
2023-03-22T01:35:22.310Z,94.21
2023-03-22T01:38:25.305Z,93.53
2023-03-22T01:41:37.535Z,93.45
2023-03-22T01:45:16.841Z,93.54
2023-03-22T01:48:46.322Z,94.37
2023-03-22T01:52:14.406Z,94.69
2023-03-22T01:55:33.738Z,95.11
2023-03-22T01:58:46.612Z,95.07
2023-03-22T02:01:52.037Z,95.32
2023-03-22T02:04:58.286Z,94.60
2023-03-22T02:08:04.909Z,93.92
2023-03-22T02:11:41.721Z,92.39
2023-03-22T02:15:24.950Z,91.31
2023-03-22T02:19:42.637Z,92.84
2023-03-22T02:23:08.141Z,93.43
2023-03-22T02:26:13.149Z,93.39
2023-03-22T02:29:45.098Z,94.08
2023-03-22T02:33:06.213Z,93.01
2023-03-22T02:36:34.809Z,92.32
2023-03-22T02:39:59.124Z,92.59
2023-03-22T02:43:15.098Z,90.89
2023-03-22T02:46:47.037Z,90.93
2023-03-22T02:50:03.858Z,90.02
2023-03-22T02:53:41.362Z,89.97
2023-03-22T02:56:48.295Z,90.38
2023-03-22T02:59:52.493Z,90.55
2023-03-22T03:03:02.135Z,90.39
2023-03-22T03:06:15.052Z,89.86
2023-03-22T03:09:19.986Z,89.20
2023-03-22T03:12:25.348Z,88.79
2023-03-22T03:15:29.984Z,89.21
2023-03-22T03:18:45.418Z,86.87
2023-03-22T03:21:54.538Z,86.47
2023-03-22T03:25:04.948Z,87.06
2023-03-22T03:28:30.306Z,88.04
2023-03-22T03:31:45.641Z,88.07
2023-03-22T03:34:57.337Z,86.71
2023-03-22T03:38:12.032Z,86.78
2023-03-22T03:41:17.783Z,86.15
2023-03-22T03:44:20.511Z,86.69
2023-03-22T03:47:23.465Z,85.32
2023-03-22T03:50:27.184Z,87.23
2023-03-22T03:53:31.625Z,88.16
2023-03-22T03:56:34.268Z,87.02
2023-03-22T03:59:36.798Z,86.25
2023-03-22T04:02:47.316Z,85.43
2023-03-22T04:06:12.771Z,85.95
2023-03-22T04:09:20.200Z,85.77
2023-03-22T04:12:27.551Z,85.94
2023-03-22T04:15:58.188Z,85.21
2023-03-22T04:19:01.190Z,85.20
2023-03-22T04:22:03.896Z,85.45
2023-03-22T04:25:12.105Z,85.89
2023-03-22T04:28:20.456Z,86.29
2023-03-22T04:31:25.160Z,86.98
2023-03-22T04:34:34.242Z,87.22
2023-03-22T04:37:39.296Z,87.28
2023-03-22T04:40:48.780Z,87.61
2023-03-22T04:43:57.769Z,86.92
2023-03-22T04:47:00.585Z,87.81
2023-03-22T04:50:04.048Z,88.49
2023-03-22T04:53:12.485Z,88.71
2023-03-22T04:56:16.155Z,88.07
2023-03-22T04:59:20.647Z,89.79
2023-03-22T05:02:24.794Z,87.79
2023-03-22T05:05:28.058Z,87.52
2023-03-22T05:08:31.264Z,88.15
2023-03-22T05:11:34.081Z,88.19
2023-03-22T05:14:52.035Z,88.79
2023-03-22T05:17:59.492Z,87.63
2023-03-22T05:21:04.040Z,87.72
2023-03-22T05:24:08.958Z,88.19
2023-03-22T05:27:14.280Z,87.35
2023-03-22T05:30:17.909Z,88.31
2023-03-22T05:33:46.778Z,88.54
2023-03-22T05:36:52.215Z,88.61
2023-03-22T05:40:01.524Z,88.78
2023-03-22T05:43:12.106Z,88.72
2023-03-22T05:46:19.212Z,87.72
2023-03-22T05:49:41.060Z,87.93
2023-03-22T05:52:45.870Z,87.87
2023-03-22T05:56:04.320Z,88.41
2023-03-22T05:59:09.195Z,87.74
2023-03-22T06:02:11.874Z,87.30
2023-03-22T06:05:16.632Z,87.11
2023-03-22T06:08:19.503Z,86.52
2023-03-22T06:11:22.956Z,85.46
2023-03-22T06:14:26.664Z,85.69
2023-03-22T06:17:52.555Z,85.36
2023-03-22T06:20:59.646Z,86.09
2023-03-22T06:24:02.334Z,85.61
2023-03-22T06:27:05.623Z,85.12
2023-03-22T06:30:08.947Z,84.79
2023-03-22T06:33:25.013Z,82.97
2023-03-22T06:36:34.433Z,82.95
2023-03-22T06:39:55.629Z,82.74
2023-03-22T06:43:04.483Z,82.00
2023-03-22T06:46:09.911Z,80.77
2023-03-22T06:49:21.939Z,80.75
2023-03-22T06:52:27.179Z,81.06
2023-03-22T06:55:34.658Z,81.08
2023-03-22T06:58:46.406Z,80.32
2023-03-22T07:01:49.031Z,80.05
2023-03-22T07:04:52.386Z,79.64
2023-03-22T07:07:54.961Z,78.44
2023-03-22T07:10:58.024Z,78.23
2023-03-22T07:14:01.642Z,77.66
2023-03-22T07:17:27.063Z,77.01
2023-03-22T07:20:29.782Z,77.48
2023-03-22T07:23:33.252Z,77.45
2023-03-22T07:26:42.205Z,77.38
2023-03-22T07:29:49.315Z,77.33
2023-03-22T07:32:52.573Z,78.00
2023-03-22T07:35:55.414Z,78.38
2023-03-22T07:38:58.540Z,76.13
2023-03-22T07:42:05.616Z,75.37
2023-03-22T07:45:28.713Z,74.95
2023-03-22T07:48:50.195Z,74.65
2023-03-22T07:52:11.230Z,75.50
2023-03-22T07:55:14.894Z,74.81
2023-03-22T07:58:18.060Z,74.87
2023-03-22T08:01:21.668Z,76.33
2023-03-22T08:04:44.529Z,73.34
2023-03-22T08:08:16.669Z,71.21
2023-03-22T08:11:21.401Z,71.95
2023-03-22T08:14:35.456Z,69.90
2023-03-22T08:17:40.360Z,73.12
2023-03-22T08:20:59.654Z,69.65
2023-03-22T08:24:05.547Z,70.58
2023-03-22T08:27:26.389Z,68.60
2023-03-22T08:30:29.802Z,68.81
2023-03-22T08:33:33.531Z,67.85
2023-03-22T08:36:37.511Z,67.35
2023-03-22T08:39:40.639Z,68.00
2023-03-22T08:42:55.936Z,67.95
2023-03-22T08:45:58.754Z,68.63
2023-03-22T08:49:02.712Z,69.34
2023-03-22T08:52:11.642Z,66.64
2023-03-22T08:55:38.049Z,66.31
2023-03-22T08:58:47.183Z,65.81
2023-03-22T09:02:10.428Z,65.07
2023-03-22T09:05:14.408Z,65.21
2023-03-22T09:08:19.821Z,66.26
2023-03-22T09:11:27.794Z,66.02
2023-03-22T09:14:30.593Z,65.17
2023-03-22T09:17:34.177Z,66.36
2023-03-22T09:20:38.772Z,67.78
2023-03-22T09:23:47.770Z,66.39
2023-03-22T09:26:52.989Z,65.64
2023-03-22T09:29:55.813Z,64.36
2023-03-22T09:33:02.731Z,65.73
2023-03-22T09:36:06.817Z,66.82
2023-03-22T09:39:10.370Z,66.72
2023-03-22T09:42:41.035Z,64.88
2023-03-22T09:45:50.354Z,64.58
2023-03-22T09:48:53.796Z,64.46
2023-03-22T09:51:56.595Z,65.06
2023-03-22T09:54:59.319Z,64.03
2023-03-22T09:58:26.332Z,64.62
2023-03-22T10:01:57.274Z,65.00
2023-03-22T10:05:22.586Z,64.43
2023-03-22T10:08:30.565Z,62.54
2023-03-22T10:11:40.251Z,63.92
2023-03-22T10:15:08.080Z,63.98
2023-03-22T10:18:24.949Z,63.79
2023-03-22T10:21:27.620Z,64.80
2023-03-22T10:24:33.043Z,61.83
2023-03-22T10:27:36.422Z,59.90
2023-03-22T10:30:41.066Z,59.29
2023-03-22T10:33:53.528Z,59.36
2023-03-22T10:36:56.456Z,60.01
2023-03-22T10:40:01.249Z,56.14
2023-03-22T10:43:26.309Z,57.92
2023-03-22T10:46:34.746Z,55.38
2023-03-22T10:49:42.751Z,57.60
2023-03-22T10:53:03.368Z,56.24
2023-03-22T10:56:11.836Z,56.98
2023-03-22T10:59:56.284Z,55.85
2023-03-22T11:03:00.795Z,55.54
2023-03-22T11:06:17.451Z,54.89
2023-03-22T11:09:21.764Z,52.72
2023-03-22T11:12:24.731Z,51.91
2023-03-22T11:15:32.850Z,50.96
2023-03-22T11:18:35.771Z,49.80
2023-03-22T11:21:38.342Z,50.61
2023-03-22T11:24:41.008Z,51.12
2023-03-22T11:28:05.571Z,50.39
2023-03-22T11:31:14.778Z,49.19
2023-03-22T11:34:22.131Z,50.37
2023-03-22T11:37:28.131Z,48.41
2023-03-22T11:40:33.536Z,50.65
2023-03-22T11:43:48.579Z,48.81
2023-03-22T11:46:54.576Z,49.14
2023-03-22T11:50:04.319Z,47.94
2023-03-22T11:53:25.668Z,47.67
2023-03-22T11:56:33.387Z,47.79
2023-03-22T12:00:04.952Z,46.24
2023-03-22T12:03:15.080Z,45.79
2023-03-22T12:06:28.237Z,46.32
2023-03-22T12:09:51.751Z,45.82
2023-03-22T12:13:18.929Z,45.94
2023-03-22T12:16:28.603Z,46.65
2023-03-22T12:19:57.287Z,45.04
2023-03-22T12:23:00.714Z,45.56
2023-03-22T12:26:12.521Z,45.46
2023-03-22T12:29:19.377Z,45.00
2023-03-22T12:32:28.602Z,47.12
2023-03-22T12:35:35.185Z,44.43
2023-03-22T12:38:46.342Z,44.89
2023-03-22T12:41:50.964Z,44.91
2023-03-22T12:45:05.050Z,44.93
2023-03-22T12:48:21.011Z,42.03
2023-03-22T12:51:23.884Z,41.02
2023-03-22T12:54:26.910Z,41.32
2023-03-22T12:57:29.674Z,41.19
2023-03-22T13:00:44.451Z,38.01
2023-03-22T13:03:52.356Z,40.17
2023-03-22T13:06:57.676Z,40.55
2023-03-22T13:10:01.838Z,37.78
2023-03-22T13:13:22.368Z,37.63
2023-03-22T13:16:42.744Z,35.76
2023-03-22T13:20:08.056Z,35.88
2023-03-22T13:23:25.031Z,35.38
2023-03-22T13:26:54.985Z,36.13
2023-03-22T13:29:58.869Z,36.77
2023-03-22T13:33:23.811Z,37.56
2023-03-22T13:36:33.030Z,36.29
2023-03-22T13:39:39.558Z,37.91
2023-03-22T13:42:42.376Z,41.33
2023-03-22T13:46:08.236Z,38.74
2023-03-22T13:49:38.663Z,37.48
2023-03-22T13:52:53.366Z,38.76
2023-03-22T13:55:55.923Z,39.00
2023-03-22T13:58:58.814Z,41.08
2023-03-22T14:02:05.074Z,41.00
2023-03-22T14:05:13.724Z,39.05
2023-03-22T14:08:24.086Z,37.19
2023-03-22T14:11:49.729Z,38.40
2023-03-22T14:15:07.252Z,34.71
2023-03-22T14:18:35.294Z,32.13
2023-03-22T14:21:41.999Z,30.75
